Terminal Aerodrome Forecast
Issued by NWS

Home | Current Version | Previous Version | Text Only | Print | Product List | Glossary On
Versions: 1 2 3 4 5 6 7 8 9 10 11 12 13 14 15
601
FTUS45 KTFX 151132
TAFCTB
TAF
KCTB 151132Z 1512/1612 26025G35KT P6SM BKN120 BKN200
     FM152100 30016G25KT P6SM SCT060 OVC080 PROB30 1521/1524 4SM
      -RASN BKN040
     FM160000 32014G24KT 3SM -SN SCT010 OVC030
     FM160600 31009KT P6SM BKN015 OVC025 PROB30 1606/1612 4SM -SN
      OVC007=

USA.gov is the U.S. government's official web portal to all federal, state and local government web resources and services.